Time;durP1;ratioP1;P1;durP2;ratioP2;P2;SDS_P1;SDS_P2;PMS_P1;PMS_P2;Temp;Humidity;BMP_temperature;BMP_pressure;BME280_temperature;BME280_humidity;BME280_pressure;Samples;Min_cycle;Max_cycle;Signal;HPM_P1;HPM_P2
2022/01/31 00:00:54;;;;;;;3.55;0.98;;;;;;;3.91;59.06;99591.19;5034848;28;20036;-64
2022/01/31 00:03:20;;;;;;;2.83;0.70;;;;;;;3.94;59.98;99593.72;5035744;28;20448;-64
2022/01/31 00:05:46;;;;;;;2.33;0.50;;;;;;;3.86;59.41;99607.66;5036069;28;20042;-64
2022/01/31 00:08:12;;;;;;;2.20;0.68;;;;;;;3.77;59.66;99599.94;5048040;28;20074;-63
2022/01/31 00:10:37;;;;;;;1.98;0.68;;;;;;;3.74;60.25;99592.16;5042007;28;20048;-63
2022/01/31 00:13:10;;;;;;;2.22;0.60;;;;;;;3.69;61.01;99603.44;5034778;28;20033;-63
2022/01/31 00:15:41;;;;;;;2.47;0.75;;;;;;;3.49;59.61;99605.28;5047337;28;20440;-63
2022/01/31 00:18:06;;;;;;;2.90;0.60;;;;;;;3.54;60.03;99602.66;5048416;28;20044;-63
2022/01/31 00:20:32;;;;;;;2.53;0.70;;;;;;;3.46;59.44;99589.72;5054438;28;20388;-63
2022/01/31 00:22:58;;;;;;;4.05;0.50;;;;;;;3.43;60.25;99589.72;5040415;28;20036;-64
2022/01/31 00:25:23;;;;;;;2.38;0.40;;;;;;;3.31;60.35;99595.88;5033696;28;20436;-64
2022/01/31 00:27:49;;;;;;;0.70;0.30;;;;;;;3.31;61.38;99590.69;5045278;28;20033;-64
2022/01/31 00:30:15;;;;;;;1.67;0.40;;;;;;;3.14;61.56;99582.94;5054223;28;20469;-63
2022/01/31 00:32:41;;;;;;;2.03;0.52;;;;;;;3.04;62.41;99581.28;5042324;28;20083;-63
2022/01/31 00:35:07;;;;;;;2.95;0.50;;;;;;;2.92;61.82;99584.78;5034417;28;20025;-63
2022/01/31 00:37:33;;;;;;;1.60;0.60;;;;;;;2.92;62.30;99579.59;5034073;28;20069;-63
2022/01/31 00:39:58;;;;;;;1.77;0.50;;;;;;;2.84;62.26;99594.31;5034783;28;20065;-63
2022/01/31 00:42:26;;;;;;;2.42;0.55;;;;;;;2.83;62.24;99581.31;5036546;28;20037;-63
2022/01/31 00:44:58;;;;;;;1.77;0.50;;;;;;;2.79;63.03;99579.63;5045143;28;20040;-63
2022/01/31 00:47:26;;;;;;;4.25;0.47;;;;;;;2.77;63.50;99581.38;5034096;28;20091;-63
2022/01/31 00:50:05;;;;;;;2.38;0.52;;;;;;;2.74;63.18;99578.78;5035520;28;20044;-63
2022/01/31 00:52:31;;;;;;;2.08;0.68;;;;;;;2.68;63.97;99571.88;5033824;28;20052;-63
2022/01/31 00:54:57;;;;;;;0.98;0.30;;;;;;;2.60;64.24;99571.91;5035339;28;20041;-64
2022/01/31 00:57:22;;;;;;;2.58;0.63;;;;;;;2.54;63.90;99577.09;5048633;28;20045;-64
2022/01/31 00:59:51;;;;;;;1.98;0.60;;;;;;;2.55;63.92;99573.63;5053920;28;20048;-63
2022/01/31 01:02:18;;;;;;;2.63;0.40;;;;;;;2.58;64.38;99573.63;5047922;28;20089;-63
2022/01/31 01:04:43;;;;;;;3.72;0.50;;;;;;;2.57;64.74;99565.84;5033422;28;20477;-63
2022/01/31 01:07:08;;;;;;;3.65;1.05;;;;;;;2.48;64.39;99564.16;5032434;28;20044;-63
2022/01/31 01:09:34;;;;;;;5.10;1.63;;;;;;;2.41;64.62;99558.09;5036396;28;20028;-63
2022/01/31 01:11:59;;;;;;;4.85;1.65;;;;;;;2.44;64.60;99568.47;5053790;28;20041;-63
2022/01/31 01:14:26;;;;;;;3.17;0.88;;;;;;;2.37;64.99;99555.50;5052148;28;20115;-63
2022/01/31 01:16:51;;;;;;;2.45;0.63;;;;;;;2.34;65.58;99555.50;5033704;28;20045;-63
2022/01/31 01:19:17;;;;;;;2.45;0.63;;;;;;;2.25;65.76;99553.81;5045360;28;20451;-63
2022/01/31 01:21:42;;;;;;;2.47;0.50;;;;;;;2.25;66.16;99539.97;5048717;28;20510;-63
2022/01/31 01:24:08;;;;;;;5.18;1.10;;;;;;;2.19;65.95;99546.91;5052993;28;20025;-63
2022/01/31 01:26:34;;;;;;;2.25;0.60;;;;;;;2.19;66.28;99540.84;5045289;28;20029;-63
2022/01/31 01:28:59;;;;;;;2.17;0.80;;;;;;;2.09;66.25;99547.78;5033577;28;20038;-63
2022/01/31 01:31:26;;;;;;;2.53;0.80;;;;;;;2.12;66.54;99529.63;5037712;28;20405;-63
2022/01/31 01:33:52;;;;;;;5.38;1.00;;;;;;;2.09;66.78;99529.63;5033419;28;20121;-63
2022/01/31 01:36:20;;;;;;;6.50;1.20;;;;;;;2.01;66.98;99538.28;5041512;28;20032;-63
2022/01/31 01:38:45;;;;;;;3.25;1.00;;;;;;;2.02;67.10;99543.44;5032810;28;20033;-63
2022/01/31 01:41:10;;;;;;;3.05;1.00;;;;;;;1.99;67.29;99533.06;5042337;28;20120;-64
2022/01/31 01:43:38;;;;;;;1.80;0.57;;;;;;;1.91;66.66;99535.66;5033420;28;20041;-63
2022/01/31 01:46:04;;;;;;;3.50;0.70;;;;;;;1.90;67.17;99538.28;5033581;28;20121;-63
2022/01/31 01:48:31;;;;;;;2.67;0.60;;;;;;;1.86;67.35;99547.75;5035350;28;20124;-63
2022/01/31 01:50:58;;;;;;;3.20;0.85;;;;;;;1.84;66.64;99543.47;5049781;28;20448;-63
2022/01/31 01:53:24;;;;;;;3.40;0.77;;;;;;;1.86;67.13;99529.63;5032699;28;20033;-63
2022/01/31 01:55:52;;;;;;;2.28;0.57;;;;;;;1.86;67.29;99529.63;5042607;28;20036;-63
2022/01/31 01:58:19;;;;;;;3.38;0.60;;;;;;;1.87;66.90;99522.72;5034524;28;20045;-63
2022/01/31 02:00:50;;;;;;;3.50;0.85;;;;;;;1.86;67.46;99511.50;5035757;28;20087;-64
2022/01/31 02:03:19;;;;;;;3.15;0.47;;;;;;;1.75;67.26;99522.72;5032621;28;20057;-63
2022/01/31 02:05:46;;;;;;;1.98;0.70;;;;;;;1.75;67.69;99505.44;5034615;28;20042;-64
2022/01/31 02:08:17;;;;;;;3.78;0.63;;;;;;;1.69;67.65;99506.31;5044538;28;20034;-63
2022/01/31 02:10:43;;;;;;;2.78;0.60;;;;;;;1.67;68.17;99495.09;5052942;28;20121;-63
2022/01/31 02:13:09;;;;;;;2.20;0.60;;;;;;;1.73;68.17;99505.47;5035643;28;20568;-63
2022/01/31 02:15:36;;;;;;;5.32;0.80;;;;;;;1.68;68.58;99511.53;5047394;28;20476;-63
2022/01/31 02:18:02;;;;;;;3.45;0.80;;;;;;;1.61;68.54;99510.63;5052823;28;20039;-63
2022/01/31 02:20:28;;;;;;;2.88;0.77;;;;;;;1.64;68.35;99500.28;5050370;28;20041;-63
2022/01/31 02:22:54;;;;;;;4.28;0.90;;;;;;;1.66;68.71;99497.69;5052332;28;20037;-63
2022/01/31 02:25:19;;;;;;;4.32;0.70;;;;;;;1.64;69.07;99491.66;5042955;28;20044;-64
2022/01/31 02:27:45;;;;;;;3.13;0.80;;;;;;;1.66;68.76;99492.50;5033737;28;20037;-63
2022/01/31 02:30:14;;;;;;;4.40;0.82;;;;;;;1.63;68.89;99493.34;5036325;28;20045;-63
2022/01/31 02:32:40;;;;;;;2.95;0.70;;;;;;;1.63;69.25;99490.78;5050247;28;20104;-63
2022/01/31 02:35:07;;;;;;;2.33;0.68;;;;;;;1.61;69.16;99489.91;5050478;28;20116;-63
2022/01/31 02:37:32;;;;;;;2.80;0.75;;;;;;;1.56;69.40;99494.25;5052758;28;20041;-63
2022/01/31 02:39:58;;;;;;;4.90;0.70;;;;;;;1.55;69.52;99489.91;5047821;28;20159;-63
2022/01/31 02:42:23;;;;;;;1.58;0.60;;;;;;;1.48;69.35;99498.56;5032511;28;20041;-63
2022/01/31 02:44:49;;;;;;;2.75;0.70;;;;;;;1.45;69.15;99493.38;5042956;28;20068;-63
2022/01/31 02:47:24;;;;;;;1.88;0.73;;;;;;;1.41;69.60;99492.50;5032649;28;20041;-63
2022/01/31 02:50:02;;;;;;;3.78;0.60;;;;;;;1.43;70.00;99497.66;5035968;28;20061;-63
2022/01/31 02:52:32;;;;;;;2.80;0.50;;;;;;;1.42;70.02;99504.56;5037979;28;20072;-63
2022/01/31 02:54:57;;;;;;;2.13;0.80;;;;;;;1.41;70.47;99505.44;5035483;28;20033;-63
2022/01/31 02:57:23;;;;;;;2.13;0.70;;;;;;;1.38;70.52;99508.00;5055616;28;20099;-63
2022/01/31 02:59:48;;;;;;;2.10;0.50;;;;;;;1.32;69.80;99505.44;5056094;28;20037;-63
2022/01/31 03:02:14;;;;;;;1.30;0.43;;;;;;;1.34;70.37;99495.06;5051593;28;20040;-63
2022/01/31 03:04:40;;;;;;;2.72;0.47;;;;;;;1.33;70.40;99488.19;5038614;28;20087;-64
2022/01/31 03:07:05;;;;;;;3.63;0.65;;;;;;;1.34;70.60;99487.31;5037865;28;20128;-63
2022/01/31 03:09:31;;;;;;;2.35;0.50;;;;;;;1.23;70.39;99493.31;5036912;28;20045;-63
2022/01/31 03:11:56;;;;;;;3.10;0.70;;;;;;;1.32;71.11;99492.50;5054768;28;20044;-63
2022/01/31 03:14:22;;;;;;;3.10;0.60;;;;;;;1.26;70.88;99487.28;5055823;28;20499;-63
2022/01/31 03:16:48;;;;;;;2.72;0.40;;;;;;;1.23;71.05;99482.97;5052228;28;20041;-63
2022/01/31 03:19:15;;;;;;;2.78;0.50;;;;;;;1.19;71.41;99483.81;5052608;28;20092;-64
2022/01/31 03:21:41;;;;;;;2.67;0.50;;;;;;;1.21;71.59;99486.44;5035796;28;20057;-63
2022/01/31 03:24:07;;;;;;;3.45;0.60;;;;;;;1.18;71.92;99483.84;5034095;28;20061;-63
2022/01/31 03:26:32;;;;;;;3.63;0.68;;;;;;;1.19;71.80;99481.22;5035709;28;20029;-63
2022/01/31 03:28:58;;;;;;;2.28;0.80;;;;;;;1.19;72.30;99481.22;5051232;28;20047;-63
2022/01/31 03:31:24;;;;;;;3.35;0.60;;;;;;;1.18;72.45;99479.50;5045397;28;20118;-63
2022/01/31 03:33:51;;;;;;;3.35;0.47;;;;;;;1.13;72.59;99481.25;5053564;28;20057;-63
2022/01/31 03:36:17;;;;;;;4.35;0.68;;;;;;;1.14;72.41;99487.28;5049324;28;20037;-63
2022/01/31 03:38:43;;;;;;;4.80;0.68;;;;;;;1.17;72.32;99484.69;5035171;28;20034;-63
2022/01/31 03:41:11;;;;;;;2.92;0.80;;;;;;;1.22;72.18;99488.16;5048921;28;20037;-63
2022/01/31 03:43:36;;;;;;;3.95;0.90;;;;;;;1.22;71.87;99482.97;5055178;28;20037;-63
2022/01/31 03:46:02;;;;;;;2.72;0.80;;;;;;;1.22;71.91;99489.00;5052129;28;20060;-63
2022/01/31 03:48:28;;;;;;;2.42;0.75;;;;;;;1.29;72.08;99474.38;5051252;28;20040;-63
2022/01/31 03:50:59;;;;;;;4.78;0.88;;;;;;;1.26;71.73;99471.75;5035423;28;20476;-63
2022/01/31 03:53:24;;;;;;;2.15;0.65;;;;;;;1.38;71.76;99476.09;5034535;28;20048;-63
2022/01/31 03:55:50;;;;;;;3.67;0.70;;;;;;;1.37;71.71;99466.63;5037649;28;20886;-63
2022/01/31 03:58:15;;;;;;;2.42;0.60;;;;;;;1.29;71.23;99471.78;5035192;28;20083;-63
2022/01/31 04:00:41;;;;;;;4.70;0.65;;;;;;;1.35;71.26;99465.72;5053119;28;20032;-63
2022/01/31 04:03:06;;;;;;;3.28;0.80;;;;;;;1.39;71.24;99476.09;5035814;28;20053;-63
2022/01/31 04:05:32;;;;;;;3.20;0.80;;;;;;;1.37;71.32;99469.19;5032465;28;20064;-64
2022/01/31 04:07:58;;;;;;;2.35;0.52;;;;;;;1.31;71.11;99466.59;5047335;28;20141;-64
2022/01/31 04:10:25;;;;;;;3.70;0.65;;;;;;;1.31;70.53;99459.69;5054594;28;20036;-64
2022/01/31 04:12:51;;;;;;;3.78;0.63;;;;;;;1.34;70.36;99458.84;5051128;28;20051;-64
2022/01/31 04:15:16;;;;;;;2.03;0.52;;;;;;;1.44;70.29;99458.00;5042820;28;20159;-64
2022/01/31 04:17:42;;;;;;;3.33;0.80;;;;;;;1.42;70.01;99447.63;5040766;28;20178;-64
2022/01/31 04:20:08;;;;;;;2.08;0.60;;;;;;;1.48;70.20;99449.38;5054904;28;20115;-64
2022/01/31 04:22:39;;;;;;;1.92;0.65;;;;;;;1.55;70.02;99439.84;5049557;28;20120;-64
2022/01/31 04:25:06;;;;;;;4.30;0.90;;;;;;;1.63;69.70;99432.94;5052096;28;20064;-63
2022/01/31 04:27:44;;;;;;;3.63;0.80;;;;;;;1.67;69.28;99440.69;5034425;28;20072;-64
2022/01/31 04:30:12;;;;;;;3.45;0.77;;;;;;;1.70;68.48;99432.94;5035485;28;20116;-64
2022/01/31 04:32:38;;;;;;;4.72;0.88;;;;;;;1.82;69.07;99441.56;5034791;28;20455;-64
2022/01/31 04:35:04;;;;;;;7.20;1.92;;;;;;;1.84;68.35;99432.09;5034722;28;20523;-64
2022/01/31 04:37:30;;;;;;;8.40;2.13;;;;;;;1.89;68.46;99431.19;5053923;28;20040;-63
2022/01/31 04:39:57;;;;;;;7.57;2.05;;;;;;;1.91;68.03;99420.81;5054418;28;20116;-63
2022/01/31 04:42:24;;;;;;;17.48;1.83;;;;;;;1.92;67.96;99422.56;5035992;28;20373;-63
2022/01/31 04:44:54;;;;;;;7.00;1.70;;;;;;;1.97;68.15;99419.09;5053066;28;20476;-63
2022/01/31 04:47:19;;;;;;;6.07;1.75;;;;;;;1.92;68.20;99412.19;5036561;28;20029;-64
2022/01/31 04:49:45;;;;;;;4.78;1.52;;;;;;;1.90;68.31;99408.75;5034478;28;20603;-63
2022/01/31 04:52:10;;;;;;;4.95;1.50;;;;;;;1.87;68.53;99407.00;5035339;28;20148;-63
2022/01/31 04:54:35;;;;;;;10.07;2.85;;;;;;;1.81;68.45;99408.75;5034379;28;20032;-64
2022/01/31 04:57:01;;;;;;;7.35;1.98;;;;;;;1.71;68.97;99403.56;5040956;28;20049;-64
2022/01/31 04:59:28;;;;;;;7.97;1.92;;;;;;;1.60;68.55;99395.00;5034088;28;20064;-64
2022/01/31 05:01:54;;;;;;;5.65;1.10;;;;;;;1.62;68.36;99403.59;5034965;28;20037;-63
2022/01/31 05:04:19;;;;;;;5.80;1.30;;;;;;;1.63;69.03;99397.53;5033872;28;20061;-63
2022/01/31 05:06:46;;;;;;;4.38;1.40;;;;;;;1.55;68.83;99401.88;5033380;28;20044;-64
2022/01/31 05:09:12;;;;;;;7.07;1.35;;;;;;;1.65;69.27;99398.44;5051980;28;20412;-64
2022/01/31 05:11:38;;;;;;;4.15;1.40;;;;;;;1.65;69.42;99387.22;5039427;28;20125;-63
2022/01/31 05:14:04;;;;;;;4.18;1.73;;;;;;;1.62;69.40;99393.25;5033947;28;20460;-64
2022/01/31 05:16:30;;;;;;;5.60;2.00;;;;;;;1.62;69.42;99401.00;5033754;28;20048;-64
2022/01/31 05:18:56;;;;;;;5.93;1.95;;;;;;;1.63;69.32;99400.13;5033397;28;20041;-63
2022/01/31 05:21:21;;;;;;;5.65;2.05;;;;;;;1.63;69.13;99405.31;5033867;28;20124;-63
2022/01/31 05:23:49;;;;;;;5.10;2.08;;;;;;;1.62;69.00;99400.16;5037988;28;20062;-63
2022/01/31 05:26:16;;;;;;;8.07;3.35;;;;;;;1.59;69.31;99388.06;5054051;28;20128;-63
2022/01/31 05:28:42;;;;;;;9.63;4.68;;;;;;;1.56;69.00;99398.44;5049333;28;20043;-64
2022/01/31 05:31:08;;;;;;;10.05;4.50;;;;;;;1.55;69.40;99386.34;5033492;28;20041;-63
2022/01/31 05:33:35;;;;;;;9.63;4.90;;;;;;;1.49;68.64;99394.13;5018730;28;20040;-63
2022/01/31 05:36:00;;;;;;;6.03;3.63;;;;;;;1.56;69.15;99393.25;5045214;28;20034;-63
2022/01/31 05:38:26;;;;;;;5.85;3.47;;;;;;;1.61;69.32;99399.28;5034351;28;20037;-63
2022/01/31 05:40:52;;;;;;;6.63;3.30;;;;;;;1.62;69.28;99394.97;5033818;28;20040;-64
2022/01/31 05:43:19;;;;;;;6.40;2.83;;;;;;;1.71;69.39;99394.94;5035766;28;20033;-63
2022/01/31 05:45:46;;;;;;;6.45;2.75;;;;;;;1.65;68.27;99398.44;5033348;28;20026;-63
2022/01/31 05:48:12;;;;;;;6.15;2.53;;;;;;;1.76;69.13;99392.38;5034310;28;20045;-63
2022/01/31 05:50:38;;;;;;;7.70;3.63;;;;;;;1.80;68.84;99389.78;5034411;28;20041;-63
2022/01/31 05:53:05;;;;;;;9.13;4.15;;;;;;;1.84;68.97;99395.81;5038142;28;20072;-63
2022/01/31 05:55:32;;;;;;;11.88;6.13;;;;;;;1.83;68.92;99388.88;5047427;28;20090;-64
2022/01/31 05:57:57;;;;;;;12.02;5.60;;;;;;;1.83;68.85;99387.16;5043178;28;20045;-63
2022/01/31 06:00:22;;;;;;;9.75;3.35;;;;;;;1.83;68.92;99381.97;5044163;28;20064;-63
2022/01/31 06:02:56;;;;;;;7.97;3.47;;;;;;;1.85;68.86;99389.75;5041549;28;20045;-63
2022/01/31 06:05:23;;;;;;;7.10;2.33;;;;;;;1.85;68.78;99387.16;5047876;28;20098;-63
2022/01/31 06:07:50;;;;;;;7.47;2.80;;;;;;;1.82;68.94;99377.66;5046511;28;20033;-63
2022/01/31 06:10:16;;;;;;;8.57;3.00;;;;;;;1.83;68.92;99375.94;5033320;28;20044;-64
2022/01/31 06:12:42;;;;;;;6.40;3.08;;;;;;;1.87;69.23;99386.28;5033491;28;20040;-63
2022/01/31 06:15:09;;;;;;;8.95;3.75;;;;;;;1.88;69.32;99385.44;5033347;28;20041;-63
2022/01/31 06:17:35;;;;;;;9.93;3.33;;;;;;;1.93;69.20;99380.25;5042132;28;20036;-63
2022/01/31 06:20:00;;;;;;;11.68;5.22;;;;;;;1.93;68.85;99380.25;5053402;28;20041;-64
2022/01/31 06:22:26;;;;;;;15.63;6.35;;;;;;;1.90;69.23;99372.47;5043343;28;20112;-63
2022/01/31 06:24:51;;;;;;;13.38;6.85;;;;;;;1.91;68.98;99372.44;5039593;28;20116;-63
2022/01/31 06:27:16;;;;;;;12.13;5.85;;;;;;;1.92;69.09;99375.94;5048195;28;20053;-63
2022/01/31 06:29:42;;;;;;;17.08;6.13;;;;;;;1.91;69.30;99384.56;5039842;28;20033;-63
2022/01/31 06:32:08;;;;;;;8.23;3.10;;;;;;;1.86;69.32;99370.75;5046717;28;20077;-63
2022/01/31 06:34:33;;;;;;;8.75;2.88;;;;;;;1.86;69.57;99369.03;5040028;28;20041;-63
2022/01/31 06:37:02;;;;;;;13.57;4.45;;;;;;;1.87;69.65;99377.66;5044042;28;20049;-63
2022/01/31 06:39:29;;;;;;;12.05;4.60;;;;;;;1.89;69.49;99375.94;5040873;28;20042;-64
2022/01/31 06:41:54;;;;;;;11.90;4.15;;;;;;;1.86;69.19;99381.13;5042331;28;20037;-63
2022/01/31 06:44:19;;;;;;;13.50;5.25;;;;;;;1.77;69.72;99376.81;5042076;28;20044;-63
2022/01/31 06:46:45;;;;;;;14.75;5.55;;;;;;;1.62;69.53;99377.69;5037446;28;20034;-63
2022/01/31 06:49:11;;;;;;;18.15;5.55;;;;;;;1.61;69.60;99378.56;5035842;28;20044;-63
2022/01/31 06:51:36;;;;;;;11.93;4.80;;;;;;;1.62;69.61;99369.94;5036140;28;20049;-63
2022/01/31 06:54:02;;;;;;;10.80;4.28;;;;;;;1.60;69.86;99379.44;5037470;28;20041;-62
2022/01/31 06:56:31;;;;;;;10.98;4.13;;;;;;;1.62;69.87;99380.28;5037170;28;20042;-62
2022/01/31 06:58:58;;;;;;;15.63;5.43;;;;;;;1.58;69.25;99368.22;5042537;28;20040;-62
2022/01/31 07:01:25;;;;;;;10.60;3.85;;;;;;;1.63;69.66;99369.06;5050579;28;20075;-62
2022/01/31 07:03:53;;;;;;;12.18;4.72;;;;;;;1.72;69.25;99369.06;5045134;28;20060;-63
2022/01/31 07:06:20;;;;;;;12.32;4.18;;;;;;;1.69;69.06;99371.66;5042957;28;20041;-61
2022/01/31 07:08:46;;;;;;;10.07;3.80;;;;;;;1.69;68.92;99371.66;5053302;28;20029;-62
2022/01/31 07:11:16;;;;;;;9.52;4.15;;;;;;;1.71;68.89;99374.22;5050731;28;20029;-61
2022/01/31 07:13:43;;;;;;;9.63;4.97;;;;;;;1.72;69.04;99358.72;5034848;28;20069;-62
2022/01/31 07:16:09;;;;;;;7.45;3.95;;;;;;;1.74;69.46;99366.47;5037517;28;20037;-63
2022/01/31 07:18:35;;;;;;;7.20;3.00;;;;;;;1.75;69.72;99364.72;5055770;28;20036;-61
2022/01/31 07:21:02;;;;;;;5.00;2.13;;;;;;;1.77;69.95;99361.28;5050457;28;20175;-62
2022/01/31 07:23:39;;;;;;;3.97;1.65;;;;;;;1.80;68.82;99363.88;5046851;28;20041;-61
2022/01/31 07:26:05;;;;;;;4.88;1.55;;;;;;;1.91;69.74;99364.69;5053960;28;20060;-62
2022/01/31 07:28:30;;;;;;;3.28;1.30;;;;;;;2.05;69.57;99363.78;5036091;28;20029;-61
2022/01/31 07:30:57;;;;;;;3.97;1.90;;;;;;;2.16;68.91;99365.47;5040504;28;20033;-61
2022/01/31 07:33:23;;;;;;;4.43;1.67;;;;;;;2.14;68.64;99356.84;5054497;28;20033;-61
2022/01/31 07:35:50;;;;;;;5.22;1.58;;;;;;;2.16;68.69;99365.47;5047527;28;20041;-62
2022/01/31 07:38:17;;;;;;;4.55;1.63;;;;;;;2.13;68.20;99365.50;5050997;28;20041;-62
2022/01/31 07:40:43;;;;;;;4.35;1.58;;;;;;;2.19;68.84;99372.38;5041214;28;20091;-61
2022/01/31 07:43:08;;;;;;;4.97;1.80;;;;;;;2.22;68.71;99375.81;5039341;28;20435;-62
2022/01/31 07:45:34;;;;;;;7.53;2.38;;;;;;;2.25;68.91;99366.31;5058119;28;20063;-61
2022/01/31 07:48:00;;;;;;;6.95;2.80;;;;;;;2.24;68.96;99367.19;5054982;28;20073;-62
2022/01/31 07:50:26;;;;;;;6.40;3.50;;;;;;;2.25;68.71;99364.59;5043715;28;20503;-63
2022/01/31 07:52:52;;;;;;;7.63;2.90;;;;;;;2.27;68.92;99357.63;5027227;28;20520;-62
2022/01/31 07:55:18;;;;;;;7.53;4.90;;;;;;;2.25;68.84;99364.59;5022220;28;20038;-63
2022/01/31 07:57:46;;;;;;;4.20;2.20;;;;;;;2.20;68.65;99368.94;5032550;28;20044;-64
2022/01/31 08:00:12;;;;;;;4.30;1.92;;;;;;;2.32;68.38;99360.25;5034634;28;20753;-62
2022/01/31 08:02:39;;;;;;;4.75;1.98;;;;;;;2.31;67.28;99359.34;5036173;28;20052;-63
2022/01/31 08:05:07;;;;;;;5.97;2.28;;;;;;;2.29;67.96;99355.06;5031682;28;20324;-63
2022/01/31 08:07:33;;;;;;;5.38;2.30;;;;;;;2.27;67.77;99356.78;5022149;28;20043;-63
2022/01/31 08:10:01;;;;;;;4.80;2.05;;;;;;;2.23;67.74;99350.75;5017531;28;20095;-63
2022/01/31 08:12:27;;;;;;;4.57;2.00;;;;;;;2.22;67.94;99355.06;5017829;28;20036;-63
2022/01/31 08:15:01;;;;;;;5.80;1.88;;;;;;;2.27;67.52;99351.59;5035160;28;20033;-63
2022/01/31 08:17:28;;;;;;;3.85;1.58;;;;;;;2.31;67.82;99342.94;5034455;28;20446;-64
2022/01/31 08:19:54;;;;;;;10.45;1.88;;;;;;;2.24;67.82;99344.72;5030124;28;20124;-63
2022/01/31 08:22:19;;;;;;;6.60;2.58;;;;;;;2.12;67.25;99343.03;5036574;28;20039;-63
2022/01/31 08:24:45;;;;;;;5.95;2.58;;;;;;;2.15;67.56;99340.41;5035631;28;20393;-63
2022/01/31 08:27:11;;;;;;;7.60;2.47;;;;;;;2.28;68.04;99333.47;5022014;28;20052;-62
2022/01/31 08:29:38;;;;;;;10.30;3.42;;;;;;;2.21;67.17;99326.59;5023363;28;20051;-63
2022/01/31 08:32:14;;;;;;;8.50;3.28;;;;;;;2.14;66.56;99330.91;5024692;28;20051;-63
2022/01/31 08:37:25;;;;;;;11.13;3.35;;;;;;;2.15;67.13;99326.59;5036303;28;20110;-63
2022/01/31 08:39:51;;;;;;;8.50;3.15;;;;;;;2.25;67.17;99328.28;5027693;28;20033;-62
2022/01/31 08:42:17;;;;;;;6.22;2.88;;;;;;;2.35;67.45;99323.91;5038710;28;20098;-62
2022/01/31 08:44:42;;;;;;;5.38;2.40;;;;;;;2.41;67.10;99310.94;5047586;28;20497;-62
2022/01/31 08:47:09;;;;;;;5.32;2.00;;;;;;;2.41;66.30;99304.00;5031033;28;20065;-62
2022/01/31 08:49:36;;;;;;;3.85;1.73;;;;;;;2.55;66.47;99303.06;5028611;28;20099;-61
2022/01/31 08:52:03;;;;;;;5.22;1.80;;;;;;;2.61;66.46;99306.47;5032850;28;20033;-61
2022/01/31 08:54:28;;;;;;;3.90;1.48;;;;;;;2.58;65.45;99313.41;5045614;28;20524;-61
2022/01/31 08:56:54;;;;;;;3.80;1.52;;;;;;;2.76;66.45;99305.53;5051121;28;20128;-61
2022/01/31 08:59:23;;;;;;;8.10;1.88;;;;;;;2.76;66.22;99307.25;5038337;28;20412;-61
2022/01/31 09:01:52;;;;;;;6.68;1.60;;;;;;;2.87;65.92;99298.53;5037975;28;20109;-62
2022/01/31 09:04:32;;;;;;;5.28;1.58;;;;;;;2.80;65.20;99295.97;5046126;28;20053;-61
2022/01/31 09:06:57;;;;;;;3.60;1.30;;;;;;;2.96;65.56;99297.59;5037376;28;20045;-61
2022/01/31 09:09:24;;;;;;;4.85;1.70;;;;;;;3.03;65.60;99300.97;5049363;28;20053;-61
2022/01/31 09:11:49;;;;;;;3.45;1.63;;;;;;;2.95;64.59;99294.13;5042199;28;20034;-61
2022/01/31 09:14:14;;;;;;;8.05;2.63;;;;;;;3.04;65.12;99300.97;5050704;28;20036;-61
2022/01/31 09:16:40;;;;;;;4.75;1.70;;;;;;;3.11;64.92;99297.47;5049541;28;20029;-61
2022/01/31 09:19:05;;;;;;;4.63;1.63;;;;;;;3.05;64.77;99300.09;5045655;28;20488;-62
2022/01/31 09:21:31;;;;;;;4.28;1.60;;;;;;;3.04;63.64;99289.75;5032942;28;20426;-61
2022/01/31 09:23:57;;;;;;;9.85;3.33;;;;;;;2.95;63.75;99298.44;5033873;28;20038;-61
2022/01/31 09:26:23;;;;;;;7.75;3.13;;;;;;;2.92;64.56;99301.94;5053842;28;20040;-61
2022/01/31 09:28:53;;;;;;;5.25;2.33;;;;;;;3.04;63.81;99308.75;5047762;28;20041;-61
2022/01/31 09:31:20;;;;;;;4.88;1.92;;;;;;;3.03;64.44;99309.59;5035938;28;20029;-61
2022/01/31 09:33:47;;;;;;;4.57;1.98;;;;;;;3.02;63.53;99302.69;5045128;28;20032;-61
2022/01/31 09:36:12;;;;;;;3.60;1.90;;;;;;;3.06;63.83;99308.72;5051312;28;20367;-62
2022/01/31 09:38:40;;;;;;;6.28;2.20;;;;;;;3.22;64.30;99310.31;5051384;28;20465;-61
2022/01/31 09:41:06;;;;;;;10.20;2.55;;;;;;;3.20;63.60;99312.09;5051170;28;20033;-61
2022/01/31 09:46:44;;;;;;;8.13;3.08;;;;;;;3.32;62.63;99298.13;5050658;28;20037;-62
2022/01/31 09:49:02;;;;;;;8.73;3.67;;;;;;;3.42;63.18;99282.44;5040882;28;20033;-62
2022/01/31 09:51:27;;;;;;;10.55;5.05;;;;;;;3.41;62.69;99279.84;5040785;28;20543;-62
2022/01/31 09:53:59;;;;;;;12.68;5.18;;;;;;;3.56;63.18;99290.09;5041993;28;20035;-62
2022/01/31 09:56:34;;;;;;;11.70;4.13;;;;;;;3.57;61.24;99283.16;5039698;28;20060;-62
2022/01/31 09:59:01;;;;;;;9.82;3.80;;;;;;;3.65;62.81;99291.72;5042348;28;20032;-61
2022/01/31 10:01:49;;;;;;;10.27;2.90;;;;;;;3.71;59.67;99294.28;5043661;28;20044;-61
2022/01/31 10:04:29;;;;;;;10.15;3.20;;;;;;;3.79;60.92;99286.34;5045222;28;20081;-61
2022/01/31 10:06:56;;;;;;;7.40;2.33;;;;;;;3.84;61.37;99295.84;5044127;28;20025;-61
2022/01/31 10:09:25;;;;;;;11.10;4.53;;;;;;;3.97;61.58;99293.09;5045307;28;20047;-61
2022/01/31 10:12:05;;;;;;;5.50;2.60;;;;;;;3.98;61.08;99292.22;5043343;28;20709;-62
2022/01/31 10:17:31;;;;;;;6.50;2.50;;;;;;;4.00;57.76;99280.91;5044944;28;20048;-61
2022/01/31 10:20:01;;;;;;;12.15;4.65;;;;;;;4.13;60.44;99287.69;5045983;28;20021;-61
2022/01/31 10:22:29;;;;;;;7.93;3.17;;;;;;;4.33;58.89;99289.16;5044700;28;20425;-61
2022/01/31 10:24:57;;;;;;;9.05;2.67;;;;;;;4.25;59.46;99283.19;5045575;28;20029;-61
2022/01/31 10:27:29;;;;;;;6.32;2.55;;;;;;;4.42;58.54;99274.25;5046204;28;20127;-61
2022/01/31 10:30:05;;;;;;;7.35;3.20;;;;;;;4.45;58.13;99274.22;5045263;28;20112;-61
2022/01/31 10:32:35;;;;;;;7.18;2.15;;;;;;;4.61;58.00;99274.88;5044971;28;20033;-62
2022/01/31 10:35:07;;;;;;;7.22;2.35;;;;;;;4.54;56.96;99268.03;5044680;28;20033;-61
2022/01/31 10:37:35;;;;;;;6.90;3.17;;;;;;;4.64;57.50;99269.63;5045048;28;20116;-61
2022/01/31 10:54:15;;;;;;;6.43;2.20;;;;;;;4.92;55.97;99269.19;5045781;28;20034;-61
2022/01/31 10:56:55;;;;;;;6.25;2.97;;;;;;;4.77;54.32;99275.50;5045866;28;20048;-61
2022/01/31 10:59:34;;;;;;;11.15;5.13;;;;;;;4.85;54.96;99273.63;5045544;28;20029;-61
2022/01/31 11:02:01;;;;;;;4.18;2.03;;;;;;;5.07;57.28;99268.94;5036371;28;20037;-61
2022/01/31 11:04:38;;;;;;;4.88;1.88;;;;;;;4.95;55.42;99266.53;5036196;28;20059;-61
2022/01/31 11:07:08;;;;;;;8.23;3.00;;;;;;;4.91;55.98;99281.34;5036290;28;20041;-61
2022/01/31 11:09:33;;;;;;;7.20;2.85;;;;;;;4.91;57.08;99260.53;5035717;28;20044;-61
2022/01/31 11:11:59;;;;;;;4.85;1.90;;;;;;;4.74;55.50;99261.66;5038033;28;20385;-61
2022/01/31 11:14:26;;;;;;;5.43;2.08;;;;;;;4.80;56.00;99265.03;5054641;28;20476;-61
2022/01/31 11:16:54;;;;;;;4.38;2.03;;;;;;;4.80;56.05;99269.38;5055387;28;20033;-61
2022/01/31 11:19:30;;;;;;;7.10;1.90;;;;;;;4.69;55.52;99267.81;5056015;28;20033;-61
2022/01/31 11:22:01;;;;;;;6.57;2.60;;;;;;;4.87;56.35;99258.84;5053687;28;20036;-61
2022/01/31 11:24:32;;;;;;;6.18;2.35;;;;;;;4.96;55.94;99270.00;5055969;28;20542;-61
2022/01/31 11:27:15;;;;;;;7.50;3.22;;;;;;;5.01;54.40;99260.34;5055979;28;20381;-61
2022/01/31 11:29:45;;;;;;;4.47;2.05;;;;;;;5.08;55.33;99267.19;5055724;28;20063;-61
2022/01/31 11:32:11;;;;;;;5.63;2.45;;;;;;;5.24;56.04;99258.22;5055726;28;20029;-61
2022/01/31 11:34:39;;;;;;;5.35;2.30;;;;;;;5.37;55.83;99246.69;5055635;28;20373;-61
2022/01/31 11:37:07;;;;;;;4.18;1.58;;;;;;;5.43;54.70;99266.56;5055557;28;20392;-61
2022/01/31 11:39:33;;;;;;;5.40;2.08;;;;;;;5.61;54.66;99260.13;5055678;28;20037;-61
2022/01/31 11:42:01;;;;;;;5.38;1.90;;;;;;;5.84;55.25;99251.88;5055625;28;20488;-61
2022/01/31 11:44:42;;;;;;;5.07;2.10;;;;;;;5.76;52.27;99256.38;5055522;28;20151;-62
2022/01/31 11:47:08;;;;;;;7.75;2.40;;;;;;;5.79;54.32;99258.94;5055426;28;20031;-62
2022/01/31 11:49:47;;;;;;;4.80;1.90;;;;;;;5.66;52.36;99253.97;5055598;28;20048;-62
2022/01/31 11:52:14;;;;;;;4.68;1.67;;;;;;;5.77;53.99;99255.47;5055508;28;20519;-62
2022/01/31 11:54:48;;;;;;;5.32;1.73;;;;;;;5.76;52.67;99259.84;5054180;28;20040;-62
2022/01/31 11:57:17;;;;;;;4.60;1.50;;;;;;;5.84;53.69;99262.31;5055298;28;20044;-62
2022/01/31 11:59:43;;;;;;;5.93;2.47;;;;;;;5.67;53.04;99265.25;5055154;28;20120;-61
2022/01/31 12:02:14;;;;;;;7.30;2.75;;;;;;;5.46;53.20;99265.63;5055383;28;20124;-62
2022/01/31 12:04:44;;;;;;;5.32;1.48;;;;;;;5.31;51.70;99266.78;5054953;28;20041;-61